createdAt,value
2018-11-06T00:00:13.102Z,7.50
2018-11-06T00:02:40.962Z,7.50
2018-11-06T00:05:11.902Z,7.50
2018-11-06T00:07:39.851Z,7.50
2018-11-06T00:10:07.866Z,7.50
2018-11-06T00:12:35.432Z,7.50
2018-11-06T00:15:03.068Z,7.40
2018-11-06T00:17:30.757Z,7.40
2018-11-06T00:19:58.277Z,7.40
2018-11-06T00:22:25.801Z,7.40
2018-11-06T00:24:53.462Z,7.30
2018-11-06T00:27:21.015Z,7.30
2018-11-06T00:29:48.545Z,7.30
2018-11-06T00:32:16.085Z,7.30
2018-11-06T00:34:43.577Z,7.30
2018-11-06T00:37:11.163Z,7.30
2018-11-06T00:39:38.751Z,7.30
2018-11-06T00:42:06.433Z,7.30
2018-11-06T00:44:33.978Z,7.30
2018-11-06T00:47:01.509Z,7.30
2018-11-06T00:49:29.084Z,7.30
2018-11-06T00:51:56.637Z,7.30
2018-11-06T00:54:24.253Z,7.10
2018-11-06T00:56:51.773Z,7.10
2018-11-06T00:59:19.304Z,7.10
2018-11-06T01:01:46.823Z,7.10
2018-11-06T01:04:14.421Z,7.10
2018-11-06T01:06:42.187Z,7.10
2018-11-06T01:09:11.255Z,7.00
2018-11-06T01:11:39.143Z,7.00
2018-11-06T01:14:07.027Z,7.00
2018-11-06T01:16:34.598Z,7.00
2018-11-06T01:19:02.269Z,7.00
2018-11-06T01:21:29.826Z,7.00
2018-11-06T01:23:57.354Z,7.00
2018-11-06T01:26:24.958Z,7.00
2018-11-06T01:28:52.486Z,7.00
2018-11-06T01:31:20.020Z,6.90
2018-11-06T01:33:47.548Z,6.80
2018-11-06T01:36:15.088Z,6.80
2018-11-06T01:38:42.656Z,6.80
2018-11-06T01:41:10.266Z,6.80
2018-11-06T01:43:37.877Z,6.80
2018-11-06T01:46:05.654Z,6.80
2018-11-06T01:48:33.517Z,6.80
2018-11-06T01:51:01.032Z,6.70
2018-11-06T01:53:28.546Z,6.70
2018-11-06T01:55:56.160Z,6.70
2018-11-06T01:58:23.741Z,6.70
2018-11-06T02:00:51.334Z,6.70
2018-11-06T02:03:18.853Z,6.70
2018-11-06T02:05:46.381Z,6.70
2018-11-06T02:08:13.957Z,6.70
2018-11-06T02:10:41.536Z,6.70
2018-11-06T02:13:09.208Z,6.70
2018-11-06T02:15:36.791Z,6.70
2018-11-06T02:18:04.772Z,6.70
2018-11-06T02:20:32.297Z,6.60
2018-11-06T02:22:59.857Z,6.60
2018-11-06T02:25:27.379Z,6.60
2018-11-06T02:27:54.973Z,6.50
2018-11-06T02:30:22.523Z,6.50
2018-11-06T02:32:50.096Z,6.50
2018-11-06T02:35:17.662Z,6.40
2018-11-06T02:37:45.181Z,6.40
2018-11-06T02:40:13.736Z,6.40
2018-11-06T02:42:41.675Z,6.40
2018-11-06T02:45:10.145Z,6.40
2018-11-06T02:47:37.827Z,6.40
2018-11-06T02:50:05.907Z,6.30
2018-11-06T02:52:33.475Z,6.30
2018-11-06T02:55:01.049Z,6.30
2018-11-06T02:57:28.579Z,6.30
2018-11-06T02:59:56.164Z,6.30
2018-11-06T03:02:23.755Z,6.30
2018-11-06T03:04:51.335Z,6.30
2018-11-06T03:07:18.969Z,6.30
2018-11-06T03:09:46.555Z,6.30
2018-11-06T03:12:14.179Z,6.20
2018-11-06T03:14:41.817Z,6.20
2018-11-06T03:17:09.425Z,6.20
2018-11-06T03:19:37.017Z,6.20
2018-11-06T03:22:04.572Z,6.20
2018-11-06T03:24:32.251Z,6.20
2018-11-06T03:26:59.880Z,6.20
2018-11-06T03:29:27.327Z,6.20
2018-11-06T03:31:54.975Z,6.20
2018-11-06T03:34:22.513Z,6.10
2018-11-06T03:36:49.925Z,6.00
2018-11-06T03:39:17.447Z,6.00
2018-11-06T03:41:45.011Z,6.00
2018-11-06T03:44:12.508Z,6.00
2018-11-06T03:46:40.156Z,6.00
2018-11-06T03:49:07.767Z,5.90
2018-11-06T03:51:35.381Z,5.90
2018-11-06T03:54:02.922Z,6.00
2018-11-06T03:56:30.452Z,6.00
2018-11-06T03:58:57.987Z,6.00
2018-11-06T04:01:25.552Z,6.00
2018-11-06T04:03:53.284Z,6.00
2018-11-06T04:06:20.828Z,5.90
2018-11-06T04:08:48.397Z,5.90
2018-11-06T04:11:15.928Z,5.90
2018-11-06T04:13:43.442Z,5.80
2018-11-06T04:16:11.016Z,5.80
2018-11-06T04:18:38.578Z,5.80
2018-11-06T04:21:06.203Z,5.80
2018-11-06T04:23:33.722Z,5.70
2018-11-06T04:26:01.281Z,5.70
2018-11-06T04:28:28.794Z,5.60
2018-11-06T04:30:56.381Z,5.70
2018-11-06T04:33:23.942Z,5.70
2018-11-06T04:35:51.484Z,5.70
2018-11-06T04:38:19.025Z,5.70
2018-11-06T04:40:46.556Z,5.70
2018-11-06T04:43:14.122Z,5.70
2018-11-06T04:45:41.674Z,5.70
2018-11-06T04:48:09.301Z,5.70
2018-11-06T04:50:36.934Z,5.70
2018-11-06T04:53:04.536Z,5.70
2018-11-06T04:55:32.116Z,5.70
2018-11-06T04:57:59.642Z,5.70
2018-11-06T05:00:27.223Z,5.70
2018-11-06T05:02:54.792Z,5.60
2018-11-06T05:05:22.336Z,5.60
2018-11-06T05:07:49.855Z,5.60
2018-11-06T05:10:17.394Z,5.60
2018-11-06T05:12:44.921Z,5.60
2018-11-06T05:15:13.663Z,5.60
2018-11-06T05:17:41.230Z,5.60
2018-11-06T05:20:10.855Z,5.60
2018-11-06T05:22:38.434Z,5.60
2018-11-06T05:25:06.550Z,5.60
2018-11-06T05:27:34.231Z,5.60
2018-11-06T05:30:01.674Z,5.60
2018-11-06T05:32:29.222Z,5.60
2018-11-06T05:34:56.841Z,5.60
2018-11-06T05:37:24.381Z,5.60
2018-11-06T05:40:03.238Z,5.60
2018-11-06T05:42:30.745Z,5.60
2018-11-06T05:44:58.328Z,5.60
2018-11-06T05:47:25.907Z,5.50
2018-11-06T05:49:53.537Z,5.50
2018-11-06T05:52:21.099Z,5.50
2018-11-06T05:54:48.741Z,5.50
2018-11-06T05:57:16.325Z,5.50
2018-11-06T05:59:43.901Z,5.50
2018-11-06T06:02:11.505Z,5.50
2018-11-06T06:04:39.159Z,5.50
2018-11-06T06:07:06.827Z,5.40
2018-11-06T06:09:34.460Z,5.40
2018-11-06T06:12:02.034Z,5.40
2018-11-06T06:14:29.519Z,5.40
2018-11-06T06:16:57.248Z,5.70
2018-11-06T06:19:24.693Z,6.50
2018-11-06T06:21:52.232Z,7.40
2018-11-06T06:24:19.817Z,8.00
2018-11-06T06:26:47.391Z,8.40
2018-11-06T06:29:14.951Z,8.80
2018-11-06T06:31:42.498Z,9.20
2018-11-06T06:34:10.151Z,9.50
2018-11-06T06:36:37.750Z,9.60
2018-11-06T06:39:06.501Z,9.90
2018-11-06T06:41:34.076Z,10.10
2018-11-06T06:44:01.728Z,10.30
2018-11-06T06:46:32.228Z,10.50
2018-11-06T06:48:59.781Z,10.60
2018-11-06T06:51:27.388Z,10.40
2018-11-06T06:53:55.054Z,10.20
2018-11-06T06:56:22.600Z,10.20
2018-11-06T06:58:50.125Z,9.90
2018-11-06T07:01:17.661Z,9.50
2018-11-06T07:03:45.215Z,9.20
2018-11-06T07:06:12.774Z,8.90
2018-11-06T07:08:40.489Z,8.70
2018-11-06T07:11:08.214Z,8.50
2018-11-06T07:13:35.857Z,8.40
2018-11-06T07:16:03.450Z,8.30
2018-11-06T07:18:31.133Z,8.20
2018-11-06T07:20:58.785Z,8.20
2018-11-06T07:23:26.413Z,8.20
2018-11-06T07:25:54.040Z,8.20
2018-11-06T07:28:21.619Z,8.20
2018-11-06T07:30:49.165Z,8.10
2018-11-06T07:33:16.736Z,8.10
2018-11-06T07:35:44.508Z,8.20
2018-11-06T07:38:11.891Z,8.20
2018-11-06T07:40:39.703Z,8.30
2018-11-06T07:43:07.354Z,8.30
2018-11-06T07:45:34.949Z,8.50
2018-11-06T07:48:02.515Z,8.90
2018-11-06T07:50:30.094Z,9.20
2018-11-06T07:52:57.642Z,9.60
2018-11-06T07:55:25.284Z,10.00
2018-11-06T07:57:52.787Z,10.50
2018-11-06T08:00:22.859Z,11.00
2018-11-06T08:02:50.705Z,11.40
2018-11-06T08:05:18.325Z,11.70
2018-11-06T08:07:46.702Z,12.00
2018-11-06T08:10:14.247Z,12.30
2018-11-06T08:12:43.914Z,12.40
2018-11-06T08:15:12.144Z,12.40
2018-11-06T08:17:40.060Z,12.20
2018-11-06T08:20:07.798Z,12.00
2018-11-06T08:22:35.432Z,11.90
2018-11-06T08:25:03.200Z,11.70
2018-11-06T08:27:30.996Z,11.50
2018-11-06T08:29:58.596Z,11.40
2018-11-06T08:32:26.480Z,11.30
2018-11-06T08:34:53.818Z,11.40
2018-11-06T08:37:21.411Z,11.30
2018-11-06T08:39:48.996Z,11.40
2018-11-06T08:42:16.655Z,11.40
2018-11-06T08:44:44.208Z,11.50
2018-11-06T08:47:11.803Z,11.50
2018-11-06T08:49:39.404Z,11.60
2018-11-06T08:52:07.224Z,11.70
2018-11-06T08:54:35.181Z,11.70
2018-11-06T08:57:02.719Z,11.90
2018-11-06T08:59:30.312Z,12.10
2018-11-06T09:01:57.980Z,12.20
2018-11-06T09:04:25.534Z,12.30
2018-11-06T09:06:53.112Z,12.40
2018-11-06T09:09:20.679Z,12.50
2018-11-06T09:11:48.571Z,12.70
2018-11-06T09:14:16.182Z,12.90
2018-11-06T09:16:43.722Z,13.10
2018-11-06T09:19:11.298Z,13.20
2018-11-06T09:21:38.837Z,13.40
2018-11-06T09:24:06.430Z,13.60
2018-11-06T09:26:34.150Z,13.90
2018-11-06T09:29:01.770Z,14.10
2018-11-06T09:31:29.530Z,14.20
2018-11-06T09:33:58.390Z,14.40
2018-11-06T09:36:26.242Z,14.50
2018-11-06T09:38:53.773Z,14.50
2018-11-06T09:41:21.407Z,14.70
2018-11-06T09:43:48.914Z,14.80
2018-11-06T09:46:16.519Z,14.90
2018-11-06T09:48:44.132Z,15.00
2018-11-06T09:51:11.737Z,15.10
2018-11-06T09:53:39.261Z,15.30
2018-11-06T09:56:06.937Z,15.40
2018-11-06T09:58:34.481Z,15.50
2018-11-06T10:01:02.065Z,15.60
2018-11-06T10:03:29.700Z,15.70
2018-11-06T10:05:57.317Z,15.90
2018-11-06T10:08:25.031Z,16.00
2018-11-06T10:10:52.546Z,16.20
2018-11-06T10:13:20.097Z,16.30
2018-11-06T10:15:47.718Z,16.40
2018-11-06T10:18:15.233Z,16.60
2018-11-06T10:20:42.812Z,16.70
2018-11-06T10:23:10.374Z,16.90
2018-11-06T10:25:37.944Z,17.10
2018-11-06T10:28:05.486Z,17.20
2018-11-06T10:30:33.107Z,17.40
2018-11-06T10:33:00.739Z,17.50
2018-11-06T10:35:28.410Z,17.60
2018-11-06T10:37:56.459Z,17.60
2018-11-06T10:40:24.003Z,17.70
2018-11-06T10:42:51.602Z,17.70
2018-11-06T10:45:19.848Z,17.70
2018-11-06T10:47:47.806Z,17.70
2018-11-06T10:50:16.123Z,17.80
2018-11-06T10:52:44.316Z,17.90
2018-11-06T10:55:11.854Z,18.00
2018-11-06T10:57:40.024Z,18.10
2018-11-06T11:00:15.673Z,18.20
2018-11-06T11:02:48.817Z,18.30
2018-11-06T11:05:16.674Z,18.50
2018-11-06T11:07:44.212Z,18.60
2018-11-06T11:10:11.917Z,18.60
2018-11-06T11:12:40.581Z,18.70
2018-11-06T11:15:08.045Z,18.70
2018-11-06T11:17:35.640Z,18.80
2018-11-06T11:20:03.462Z,18.90
2018-11-06T11:22:32.024Z,18.90
2018-11-06T11:24:59.776Z,19.00
2018-11-06T11:27:27.391Z,19.00
2018-11-06T11:29:55.074Z,19.00
2018-11-06T11:32:22.666Z,19.00
2018-11-06T11:34:50.225Z,19.10
2018-11-06T11:37:17.850Z,19.10
2018-11-06T11:39:45.394Z,19.20
2018-11-06T11:42:12.980Z,19.20
2018-11-06T11:44:40.542Z,19.30
2018-11-06T11:47:08.076Z,19.30
2018-11-06T11:49:35.586Z,19.40
2018-11-06T11:52:03.254Z,19.40
2018-11-06T11:54:30.964Z,19.40
2018-11-06T11:56:58.579Z,19.40
2018-11-06T11:59:26.180Z,19.40
2018-11-06T12:01:53.753Z,19.30
2018-11-06T12:04:21.279Z,19.30
2018-11-06T12:06:48.827Z,19.30
2018-11-06T12:09:16.418Z,19.30
2018-11-06T12:11:44.032Z,19.30
2018-11-06T12:14:11.592Z,19.30
2018-11-06T12:16:39.135Z,19.40
2018-11-06T12:19:06.665Z,19.40
2018-11-06T12:21:34.245Z,19.40
2018-11-06T12:24:01.923Z,19.50
2018-11-06T12:26:29.613Z,19.70
2018-11-06T12:28:57.257Z,19.80
2018-11-06T12:31:27.703Z,19.80
2018-11-06T12:33:55.232Z,19.90
2018-11-06T12:36:22.783Z,19.90
2018-11-06T12:38:50.319Z,19.90
2018-11-06T12:41:17.898Z,19.90
2018-11-06T12:43:45.449Z,19.90
2018-11-06T12:46:13.029Z,19.90
2018-11-06T12:48:40.604Z,19.80
2018-11-06T12:51:08.358Z,19.80
2018-11-06T12:53:35.928Z,19.80
2018-11-06T12:56:03.554Z,19.70
2018-11-06T12:58:31.261Z,19.70
2018-11-06T13:00:58.895Z,19.70
2018-11-06T13:03:26.513Z,19.60
2018-11-06T13:05:54.144Z,19.60
2018-11-06T13:08:21.685Z,19.60
2018-11-06T13:10:49.253Z,19.60
2018-11-06T13:13:16.876Z,19.60
2018-11-06T13:15:44.595Z,19.60
2018-11-06T13:18:12.059Z,19.60
2018-11-06T13:20:39.652Z,19.70
2018-11-06T13:23:07.220Z,19.70
2018-11-06T13:25:34.883Z,19.70
2018-11-06T13:28:02.512Z,19.70
2018-11-06T13:30:30.144Z,19.70
2018-11-06T13:32:57.821Z,19.60
2018-11-06T13:35:25.411Z,19.50
2018-11-06T13:37:52.985Z,19.50
2018-11-06T13:40:20.526Z,19.40
2018-11-06T13:42:48.281Z,19.30
2018-11-06T13:45:18.458Z,19.20
2018-11-06T13:47:45.994Z,19.10
2018-11-06T13:50:13.569Z,19.10
2018-11-06T13:52:41.130Z,19.00
2018-11-06T13:55:10.034Z,19.00
2018-11-06T13:57:37.533Z,18.90
2018-11-06T14:00:09.076Z,18.90
2018-11-06T14:02:36.687Z,18.80
2018-11-06T14:05:04.738Z,18.80
2018-11-06T14:07:32.320Z,18.70
2018-11-06T14:09:59.965Z,18.70
2018-11-06T14:12:27.586Z,18.70
2018-11-06T14:14:55.151Z,18.60
2018-11-06T14:17:22.739Z,18.70
2018-11-06T14:19:50.332Z,18.70
2018-11-06T14:22:17.892Z,18.70
2018-11-06T14:24:45.475Z,18.70
2018-11-06T14:27:13.115Z,18.70
2018-11-06T14:29:41.099Z,18.60
2018-11-06T14:32:08.638Z,18.70
2018-11-06T14:34:36.213Z,18.60
2018-11-06T14:37:03.814Z,18.70
2018-11-06T14:39:31.449Z,18.70
2018-11-06T14:41:59.082Z,18.70
2018-11-06T14:44:26.673Z,18.80
2018-11-06T14:46:54.257Z,18.90
2018-11-06T14:49:22.175Z,18.80
2018-11-06T14:51:49.691Z,18.80
2018-11-06T14:54:17.287Z,18.60
2018-11-06T14:56:44.863Z,18.50
2018-11-06T14:59:12.467Z,18.30
2018-11-06T15:01:40.029Z,18.20
2018-11-06T15:04:07.595Z,18.00
2018-11-06T15:06:35.213Z,17.90
2018-11-06T15:09:04.106Z,17.80
2018-11-06T15:11:32.439Z,17.60
2018-11-06T15:14:00.118Z,17.50
2018-11-06T15:16:28.042Z,17.40
2018-11-06T15:18:55.651Z,17.20
2018-11-06T15:21:29.854Z,17.10
2018-11-06T15:23:57.632Z,17.00
2018-11-06T15:26:25.206Z,16.90
2018-11-06T15:28:52.791Z,16.70
2018-11-06T15:31:20.362Z,16.60
2018-11-06T15:33:47.986Z,16.50
2018-11-06T15:36:15.501Z,16.40
2018-11-06T15:41:10.968Z,16.30
2018-11-06T15:43:38.494Z,16.20
2018-11-06T15:46:06.297Z,16.10
2018-11-06T15:48:34.055Z,15.90
2018-11-06T15:51:01.667Z,15.70
2018-11-06T15:53:29.308Z,15.50
2018-11-06T15:55:57.168Z,15.30
2018-11-06T15:58:24.718Z,15.10
2018-11-06T16:00:52.383Z,15.00
2018-11-06T16:03:19.920Z,14.80
2018-11-06T16:05:47.579Z,14.70
2018-11-06T16:08:15.190Z,14.60
2018-11-06T16:10:42.754Z,14.50
2018-11-06T16:13:10.366Z,14.40
2018-11-06T16:15:37.935Z,14.20
2018-11-06T16:18:05.669Z,14.20
2018-11-06T16:20:33.313Z,14.00
2018-11-06T16:23:01.038Z,13.90
2018-11-06T16:25:28.730Z,13.80
2018-11-06T16:27:56.419Z,13.70
2018-11-06T16:30:23.992Z,13.60
2018-11-06T16:32:51.548Z,13.50
2018-11-06T16:35:20.429Z,13.50
2018-11-06T16:37:48.423Z,13.30
2018-11-06T16:40:16.573Z,13.20
2018-11-06T16:42:44.846Z,13.20
2018-11-06T16:45:14.788Z,13.10
2018-11-06T16:47:43.828Z,13.00
2018-11-06T16:50:13.290Z,13.00
2018-11-06T16:52:41.249Z,12.90
2018-11-06T16:55:09.473Z,12.80
2018-11-06T16:57:37.897Z,12.80
2018-11-06T17:00:06.988Z,12.80
2018-11-06T17:02:34.677Z,12.70
2018-11-06T17:05:02.669Z,12.60
2018-11-06T17:07:30.443Z,12.50
2018-11-06T17:09:58.299Z,12.50
2018-11-06T17:12:26.071Z,12.40
2018-11-06T17:14:53.791Z,12.40
2018-11-06T17:17:21.415Z,12.30
2018-11-06T17:19:49.081Z,12.20
2018-11-06T17:22:16.734Z,12.20
2018-11-06T17:24:44.359Z,12.10
2018-11-06T17:27:12.015Z,12.10
2018-11-06T17:29:39.697Z,12.00
2018-11-06T17:32:07.352Z,12.00
2018-11-06T17:34:34.999Z,11.90
2018-11-06T17:37:02.626Z,11.90
2018-11-06T17:39:30.443Z,11.90
2018-11-06T17:41:58.374Z,11.90
2018-11-06T17:44:26.036Z,11.90
2018-11-06T17:46:53.783Z,11.80
2018-11-06T17:49:21.446Z,11.80
2018-11-06T17:51:49.123Z,11.80
2018-11-06T17:54:16.840Z,11.70
2018-11-06T17:56:44.536Z,11.70
2018-11-06T17:59:12.231Z,11.60
2018-11-06T18:01:39.890Z,11.60
2018-11-06T18:04:07.731Z,11.50
2018-11-06T18:06:35.344Z,11.40
2018-11-06T18:09:04.201Z,11.40
2018-11-06T18:11:31.913Z,11.40
2018-11-06T18:13:59.714Z,11.40
2018-11-06T18:16:27.365Z,11.40
2018-11-06T18:18:54.935Z,11.30
2018-11-06T18:21:22.573Z,11.30
2018-11-06T18:23:50.183Z,11.30
2018-11-06T18:26:18.252Z,11.20
2018-11-06T18:28:45.962Z,11.20
2018-11-06T18:31:13.664Z,11.30
2018-11-06T18:33:41.399Z,11.20
2018-11-06T18:36:09.192Z,11.20
2018-11-06T18:38:37.141Z,11.20
2018-11-06T18:41:04.919Z,11.10
2018-11-06T18:43:33.277Z,11.10
2018-11-06T18:46:01.033Z,11.10
2018-11-06T18:48:28.884Z,11.10
2018-11-06T18:50:56.936Z,11.00
2018-11-06T18:53:24.891Z,11.00
2018-11-06T18:55:53.471Z,11.00
2018-11-06T18:58:21.124Z,10.90
2018-11-06T19:00:48.864Z,10.80
2018-11-06T19:03:17.350Z,10.80
2018-11-06T19:05:45.078Z,10.70
2018-11-06T19:08:12.730Z,10.70
2018-11-06T19:10:40.470Z,10.60
2018-11-06T19:13:08.763Z,10.60
2018-11-06T19:15:36.441Z,10.60
2018-11-06T19:18:04.792Z,10.60
2018-11-06T19:20:32.483Z,10.60
2018-11-06T19:23:00.269Z,10.50
2018-11-06T19:25:28.723Z,10.40
2018-11-06T19:27:56.443Z,10.40
2018-11-06T19:30:24.209Z,10.40
2018-11-06T19:32:52.541Z,10.40
2018-11-06T19:35:20.682Z,10.40
2018-11-06T19:37:48.777Z,10.40
2018-11-06T19:40:17.089Z,10.30
2018-11-06T19:42:46.332Z,10.30
2018-11-06T19:45:14.469Z,10.20
2018-11-06T19:47:42.836Z,10.20
2018-11-06T19:50:13.525Z,10.20
2018-11-06T19:52:42.077Z,10.20
2018-11-06T19:55:11.680Z,10.10
2018-11-06T19:57:40.161Z,10.10
2018-11-06T20:00:11.360Z,10.20
2018-11-06T20:02:40.236Z,10.20
2018-11-06T20:05:08.133Z,10.10
2018-11-06T20:07:36.086Z,10.20
2018-11-06T20:10:04.221Z,10.10
2018-11-06T20:12:32.340Z,10.20
2018-11-06T20:15:00.788Z,10.10
2018-11-06T20:17:29.542Z,10.20
2018-11-06T20:19:59.680Z,10.20
2018-11-06T20:22:28.632Z,10.10
2018-11-06T20:24:56.711Z,10.10
2018-11-06T20:27:24.641Z,10.10
2018-11-06T20:29:53.393Z,10.10
2018-11-06T20:32:21.123Z,10.00
2018-11-06T20:34:48.909Z,10.00
2018-11-06T20:37:17.597Z,9.90
2018-11-06T20:39:45.432Z,9.90
2018-11-06T20:42:14.135Z,9.90
2018-11-06T20:44:41.851Z,9.90
2018-11-06T20:47:09.680Z,9.90
2018-11-06T20:49:37.401Z,9.90
2018-11-06T20:52:08.082Z,9.90
2018-11-06T20:54:36.391Z,9.90
2018-11-06T20:57:04.733Z,9.80
2018-11-06T20:59:32.509Z,9.80
2018-11-06T21:02:00.269Z,9.70
2018-11-06T21:04:28.157Z,9.70
2018-11-06T21:06:56.000Z,9.70
2018-11-06T21:09:25.310Z,9.70
2018-11-06T21:11:53.128Z,9.60
2018-11-06T21:14:20.748Z,9.70
2018-11-06T21:16:49.226Z,9.70
2018-11-06T21:19:17.114Z,9.70
2018-11-06T21:21:44.802Z,9.70
2018-11-06T21:24:12.989Z,9.60
2018-11-06T21:26:40.745Z,9.60
2018-11-06T21:29:09.609Z,9.60
2018-11-06T21:31:37.674Z,9.50
2018-11-06T21:34:05.578Z,9.50
2018-11-06T21:36:33.460Z,9.40
2018-11-06T21:39:01.204Z,9.40
2018-11-06T21:41:29.160Z,9.30
2018-11-06T21:43:56.905Z,9.30
2018-11-06T21:46:24.621Z,9.30
2018-11-06T21:48:54.616Z,9.20
2018-11-06T21:51:22.355Z,9.20
2018-11-06T21:53:49.995Z,9.20
2018-11-06T21:56:17.692Z,9.10
2018-11-06T21:58:45.540Z,9.10
2018-11-06T22:01:13.211Z,9.10
2018-11-06T22:03:40.805Z,9.10
2018-11-06T22:06:08.421Z,9.10
2018-11-06T22:08:36.331Z,9.00
2018-11-06T22:11:04.121Z,8.90
2018-11-06T22:13:31.793Z,8.80
2018-11-06T22:15:59.507Z,8.80
2018-11-06T22:18:27.148Z,8.80
2018-11-06T22:20:54.819Z,8.90
2018-11-06T22:23:22.423Z,8.90
2018-11-06T22:25:49.997Z,9.00
2018-11-06T22:28:17.589Z,9.00
2018-11-06T22:30:45.265Z,9.10
2018-11-06T22:33:12.852Z,9.00
2018-11-06T22:35:40.416Z,9.10
2018-11-06T22:38:08.044Z,9.10
2018-11-06T22:40:35.623Z,9.10
2018-11-06T22:43:03.278Z,9.10
2018-11-06T22:45:30.893Z,9.00
2018-11-06T22:47:58.493Z,9.00
2018-11-06T22:50:26.067Z,9.00
2018-11-06T22:52:53.598Z,9.00
2018-11-06T22:55:21.153Z,9.00
2018-11-06T22:57:48.803Z,9.10
2018-11-06T23:00:18.611Z,9.10
2018-11-06T23:02:46.173Z,9.10
2018-11-06T23:05:14.126Z,9.10
2018-11-06T23:07:47.280Z,9.10
2018-11-06T23:10:14.885Z,9.10
2018-11-06T23:12:42.652Z,9.20
2018-11-06T23:15:10.266Z,9.30
2018-11-06T23:17:37.812Z,9.30
2018-11-06T23:20:05.847Z,9.30
2018-11-06T23:22:33.522Z,9.30
2018-11-06T23:25:01.235Z,9.20
2018-11-06T23:27:28.876Z,9.30
2018-11-06T23:29:56.401Z,9.30
2018-11-06T23:32:24.007Z,9.40
2018-11-06T23:34:51.584Z,9.50
2018-11-06T23:37:19.142Z,9.60
2018-11-06T23:39:46.691Z,9.60
2018-11-06T23:42:14.248Z,9.50
2018-11-06T23:44:41.778Z,9.50
2018-11-06T23:47:09.357Z,9.50
2018-11-06T23:49:36.933Z,9.50
2018-11-06T23:52:04.732Z,9.50
2018-11-06T23:54:32.341Z,9.50
2018-11-06T23:56:59.971Z,9.50
2018-11-06T23:59:27.588Z,9.50
